sensor_id;sensor_type;location;lat;lon;timestamp;P1;durP1;ratioP1;P2;durP2;ratioP2
30818;SDS011;17546;42.674;23.284;2023-05-29T00:00:12;14.10;;;4.60;;
30818;SDS011;17546;42.674;23.284;2023-05-29T00:02:39;8.90;;;4.25;;
30818;SDS011;17546;42.674;23.284;2023-05-29T00:05:10;6.55;;;4.13;;
30818;SDS011;17546;42.674;23.284;2023-05-29T00:07:37;21.42;;;4.00;;
30818;SDS011;17546;42.674;23.284;2023-05-29T00:10:03;9.27;;;4.20;;
30818;SDS011;17546;42.674;23.284;2023-05-29T00:12:29;7.90;;;4.43;;
30818;SDS011;17546;42.674;23.284;2023-05-29T00:14:55;9.13;;;4.05;;
30818;SDS011;17546;42.674;23.284;2023-05-29T00:17:20;8.57;;;4.20;;
30818;SDS011;17546;42.674;23.284;2023-05-29T00:19:46;6.82;;;4.07;;
30818;SDS011;17546;42.674;23.284;2023-05-29T00:22:11;9.65;;;4.15;;
30818;SDS011;17546;42.674;23.284;2023-05-29T00:24:37;11.75;;;4.20;;
30818;SDS011;17546;42.674;23.284;2023-05-29T00:27:03;7.07;;;4.18;;
30818;SDS011;17546;42.674;23.284;2023-05-29T00:29:28;9.23;;;4.20;;
30818;SDS011;17546;42.674;23.284;2023-05-29T00:31:54;11.48;;;4.60;;
30818;SDS011;17546;42.674;23.284;2023-05-29T00:34:21;10.13;;;4.40;;
30818;SDS011;17546;42.674;23.284;2023-05-29T00:36:48;7.90;;;4.53;;
30818;SDS011;17546;42.674;23.284;2023-05-29T00:39:14;7.30;;;4.35;;
30818;SDS011;17546;42.674;23.284;2023-05-29T00:41:40;8.43;;;4.35;;
30818;SDS011;17546;42.674;23.284;2023-05-29T00:44:05;7.70;;;4.88;;
30818;SDS011;17546;42.674;23.284;2023-05-29T00:46:31;9.63;;;4.63;;
30818;SDS011;17546;42.674;23.284;2023-05-29T00:49:01;6.97;;;4.45;;
30818;SDS011;17546;42.674;23.284;2023-05-29T00:51:27;8.88;;;4.60;;
30818;SDS011;17546;42.674;23.284;2023-05-29T00:53:54;7.00;;;4.43;;
30818;SDS011;17546;42.674;23.284;2023-05-29T00:56:20;5.53;;;4.38;;
30818;SDS011;17546;42.674;23.284;2023-05-29T00:58:47;7.10;;;4.70;;
30818;SDS011;17546;42.674;23.284;2023-05-29T01:01:15;10.02;;;4.82;;
30818;SDS011;17546;42.674;23.284;2023-05-29T01:03:42;10.43;;;4.93;;
30818;SDS011;17546;42.674;23.284;2023-05-29T01:06:08;7.10;;;4.65;;
30818;SDS011;17546;42.674;23.284;2023-05-29T01:08:35;8.35;;;4.95;;
30818;SDS011;17546;42.674;23.284;2023-05-29T01:11:02;11.50;;;4.90;;
30818;SDS011;17546;42.674;23.284;2023-05-29T01:13:38;10.90;;;4.38;;
30818;SDS011;17546;42.674;23.284;2023-05-29T01:18:50;10.73;;;4.55;;
30818;SDS011;17546;42.674;23.284;2023-05-29T01:24:03;9.85;;;4.40;;
30818;SDS011;17546;42.674;23.284;2023-05-29T01:29:34;10.13;;;4.72;;
30818;SDS011;17546;42.674;23.284;2023-05-29T01:32:00;10.05;;;4.65;;
30818;SDS011;17546;42.674;23.284;2023-05-29T01:34:29;13.13;;;4.53;;
30818;SDS011;17546;42.674;23.284;2023-05-29T01:36:55;7.82;;;4.60;;
30818;SDS011;17546;42.674;23.284;2023-05-29T01:39:20;7.93;;;4.65;;
30818;SDS011;17546;42.674;23.284;2023-05-29T01:41:46;10.35;;;4.65;;
30818;SDS011;17546;42.674;23.284;2023-05-29T01:44:13;10.02;;;5.10;;
30818;SDS011;17546;42.674;23.284;2023-05-29T01:46:40;6.13;;;4.75;;
30818;SDS011;17546;42.674;23.284;2023-05-29T01:49:07;10.60;;;4.90;;
30818;SDS011;17546;42.674;23.284;2023-05-29T01:51:34;8.48;;;5.25;;
30818;SDS011;17546;42.674;23.284;2023-05-29T01:54:00;17.10;;;5.22;;
30818;SDS011;17546;42.674;23.284;2023-05-29T01:56:26;11.65;;;5.90;;
30818;SDS011;17546;42.674;23.284;2023-05-29T01:58:56;10.25;;;5.40;;
30818;SDS011;17546;42.674;23.284;2023-05-29T02:01:23;10.93;;;5.47;;
30818;SDS011;17546;42.674;23.284;2023-05-29T02:03:49;8.55;;;5.25;;
30818;SDS011;17546;42.674;23.284;2023-05-29T02:06:16;9.93;;;5.50;;
30818;SDS011;17546;42.674;23.284;2023-05-29T02:08:42;11.23;;;5.28;;
30818;SDS011;17546;42.674;23.284;2023-05-29T02:11:07;9.68;;;5.72;;
30818;SDS011;17546;42.674;23.284;2023-05-29T02:13:33;12.75;;;5.38;;
30818;SDS011;17546;42.674;23.284;2023-05-29T02:15:59;9.93;;;5.22;;
30818;SDS011;17546;42.674;23.284;2023-05-29T02:18:24;10.02;;;5.05;;
30818;SDS011;17546;42.674;23.284;2023-05-29T02:20:50;9.60;;;5.53;;
30818;SDS011;17546;42.674;23.284;2023-05-29T02:23:16;13.60;;;5.25;;
30818;SDS011;17546;42.674;23.284;2023-05-29T02:25:41;14.50;;;5.55;;
30818;SDS011;17546;42.674;23.284;2023-05-29T02:28:07;10.90;;;5.50;;
30818;SDS011;17546;42.674;23.284;2023-05-29T02:30:34;10.50;;;5.22;;
30818;SDS011;17546;42.674;23.284;2023-05-29T02:32:59;9.38;;;5.43;;
30818;SDS011;17546;42.674;23.284;2023-05-29T02:35:25;9.55;;;5.18;;
30818;SDS011;17546;42.674;23.284;2023-05-29T02:37:50;9.15;;;5.07;;
30818;SDS011;17546;42.674;23.284;2023-05-29T02:40:17;7.75;;;5.10;;
30818;SDS011;17546;42.674;23.284;2023-05-29T02:42:43;8.85;;;5.40;;
30818;SDS011;17546;42.674;23.284;2023-05-29T02:45:08;9.82;;;5.30;;
30818;SDS011;17546;42.674;23.284;2023-05-29T02:47:36;12.50;;;5.13;;
30818;SDS011;17546;42.674;23.284;2023-05-29T02:50:02;7.18;;;5.30;;
30818;SDS011;17546;42.674;23.284;2023-05-29T02:52:29;7.45;;;5.30;;
30818;SDS011;17546;42.674;23.284;2023-05-29T02:54:57;10.05;;;5.45;;
30818;SDS011;17546;42.674;23.284;2023-05-29T02:57:23;11.90;;;5.60;;
30818;SDS011;17546;42.674;23.284;2023-05-29T02:59:49;8.45;;;5.25;;
30818;SDS011;17546;42.674;23.284;2023-05-29T03:02:16;9.68;;;5.43;;
30818;SDS011;17546;42.674;23.284;2023-05-29T03:04:42;9.85;;;5.05;;
30818;SDS011;17546;42.674;23.284;2023-05-29T03:07:07;9.80;;;5.85;;
30818;SDS011;17546;42.674;23.284;2023-05-29T03:09:34;12.48;;;6.18;;
30818;SDS011;17546;42.674;23.284;2023-05-29T03:12:00;13.88;;;6.32;;
30818;SDS011;17546;42.674;23.284;2023-05-29T03:14:26;11.45;;;5.30;;
30818;SDS011;17546;42.674;23.284;2023-05-29T03:16:52;14.20;;;6.07;;
30818;SDS011;17546;42.674;23.284;2023-05-29T03:19:18;11.18;;;5.55;;
30818;SDS011;17546;42.674;23.284;2023-05-29T03:21:44;10.80;;;5.63;;
30818;SDS011;17546;42.674;23.284;2023-05-29T03:24:10;13.05;;;6.53;;
30818;SDS011;17546;42.674;23.284;2023-05-29T03:26:36;13.63;;;6.60;;
30818;SDS011;17546;42.674;23.284;2023-05-29T03:29:02;13.40;;;7.05;;
30818;SDS011;17546;42.674;23.284;2023-05-29T03:31:27;16.40;;;6.70;;
30818;SDS011;17546;42.674;23.284;2023-05-29T03:33:53;13.30;;;7.20;;
30818;SDS011;17546;42.674;23.284;2023-05-29T03:36:18;17.38;;;7.07;;
30818;SDS011;17546;42.674;23.284;2023-05-29T03:38:44;15.70;;;6.30;;
30818;SDS011;17546;42.674;23.284;2023-05-29T03:41:09;12.68;;;6.93;;
30818;SDS011;17546;42.674;23.284;2023-05-29T03:43:35;14.30;;;6.85;;
30818;SDS011;17546;42.674;23.284;2023-05-29T03:46:01;15.93;;;6.55;;
30818;SDS011;17546;42.674;23.284;2023-05-29T03:48:27;11.27;;;6.70;;
30818;SDS011;17546;42.674;23.284;2023-05-29T03:50:52;19.17;;;7.25;;
30818;SDS011;17546;42.674;23.284;2023-05-29T03:53:17;18.77;;;7.53;;
30818;SDS011;17546;42.674;23.284;2023-05-29T03:55:43;15.23;;;7.35;;
30818;SDS011;17546;42.674;23.284;2023-05-29T03:58:08;15.88;;;8.50;;
30818;SDS011;17546;42.674;23.284;2023-05-29T04:00:37;22.42;;;11.27;;
30818;SDS011;17546;42.674;23.284;2023-05-29T04:03:03;13.57;;;7.60;;
30818;SDS011;17546;42.674;23.284;2023-05-29T04:05:28;14.80;;;7.60;;
30818;SDS011;17546;42.674;23.284;2023-05-29T04:07:54;14.80;;;7.50;;
30818;SDS011;17546;42.674;23.284;2023-05-29T04:10:20;15.02;;;7.13;;
30818;SDS011;17546;42.674;23.284;2023-05-29T04:12:46;19.52;;;7.47;;
30818;SDS011;17546;42.674;23.284;2023-05-29T04:15:11;19.98;;;7.47;;
30818;SDS011;17546;42.674;23.284;2023-05-29T04:17:36;17.45;;;7.72;;
30818;SDS011;17546;42.674;23.284;2023-05-29T04:20:02;17.50;;;7.72;;
30818;SDS011;17546;42.674;23.284;2023-05-29T04:22:33;22.05;;;8.70;;
30818;SDS011;17546;42.674;23.284;2023-05-29T04:24:59;15.68;;;8.15;;
30818;SDS011;17546;42.674;23.284;2023-05-29T04:27:25;16.02;;;7.78;;
30818;SDS011;17546;42.674;23.284;2023-05-29T04:29:50;16.15;;;7.65;;
30818;SDS011;17546;42.674;23.284;2023-05-29T04:32:16;20.33;;;7.90;;
30818;SDS011;17546;42.674;23.284;2023-05-29T04:34:42;13.85;;;7.25;;
30818;SDS011;17546;42.674;23.284;2023-05-29T04:37:09;20.40;;;7.43;;
30818;SDS011;17546;42.674;23.284;2023-05-29T04:39:34;16.25;;;7.22;;
30818;SDS011;17546;42.674;23.284;2023-05-29T04:42:00;19.42;;;7.60;;
30818;SDS011;17546;42.674;23.284;2023-05-29T04:44:25;19.92;;;7.68;;
30818;SDS011;17546;42.674;23.284;2023-05-29T04:46:51;20.92;;;7.97;;
30818;SDS011;17546;42.674;23.284;2023-05-29T04:49:17;22.67;;;8.43;;
30818;SDS011;17546;42.674;23.284;2023-05-29T04:51:43;15.23;;;8.02;;
30818;SDS011;17546;42.674;23.284;2023-05-29T04:54:10;17.13;;;8.20;;
30818;SDS011;17546;42.674;23.284;2023-05-29T04:56:36;18.13;;;7.70;;
30818;SDS011;17546;42.674;23.284;2023-05-29T04:59:02;24.70;;;9.75;;
30818;SDS011;17546;42.674;23.284;2023-05-29T05:01:27;19.08;;;8.57;;
30818;SDS011;17546;42.674;23.284;2023-05-29T05:03:53;20.55;;;8.82;;
30818;SDS011;17546;42.674;23.284;2023-05-29T05:06:23;15.73;;;8.30;;
30818;SDS011;17546;42.674;23.284;2023-05-29T05:08:50;25.60;;;9.43;;
30818;SDS011;17546;42.674;23.284;2023-05-29T05:11:17;23.02;;;9.25;;
30818;SDS011;17546;42.674;23.284;2023-05-29T05:13:43;19.92;;;8.93;;
30818;SDS011;17546;42.674;23.284;2023-05-29T05:16:09;23.95;;;9.20;;
30818;SDS011;17546;42.674;23.284;2023-05-29T05:18:35;28.02;;;10.63;;
30818;SDS011;17546;42.674;23.284;2023-05-29T05:21:01;27.15;;;10.63;;
30818;SDS011;17546;42.674;23.284;2023-05-29T05:23:28;21.10;;;10.35;;
30818;SDS011;17546;42.674;23.284;2023-05-29T05:25:53;29.35;;;10.80;;
30818;SDS011;17546;42.674;23.284;2023-05-29T05:28:19;28.77;;;10.88;;
30818;SDS011;17546;42.674;23.284;2023-05-29T05:30:44;26.27;;;11.23;;
30818;SDS011;17546;42.674;23.284;2023-05-29T05:33:10;31.38;;;11.15;;
30818;SDS011;17546;42.674;23.284;2023-05-29T05:35:35;32.03;;;11.30;;
30818;SDS011;17546;42.674;23.284;2023-05-29T05:38:01;32.50;;;10.57;;
30818;SDS011;17546;42.674;23.284;2023-05-29T05:40:27;20.92;;;10.32;;
30818;SDS011;17546;42.674;23.284;2023-05-29T05:42:52;33.92;;;11.60;;
30818;SDS011;17546;42.674;23.284;2023-05-29T05:45:18;23.70;;;10.43;;
30818;SDS011;17546;42.674;23.284;2023-05-29T05:47:43;23.08;;;10.20;;
30818;SDS011;17546;42.674;23.284;2023-05-29T05:50:09;22.48;;;10.60;;
30818;SDS011;17546;42.674;23.284;2023-05-29T05:52:35;29.25;;;9.25;;
30818;SDS011;17546;42.674;23.284;2023-05-29T05:55:01;25.38;;;10.50;;
30818;SDS011;17546;42.674;23.284;2023-05-29T05:57:28;21.02;;;9.48;;
30818;SDS011;17546;42.674;23.284;2023-05-29T06:00:01;18.38;;;9.43;;
30818;SDS011;17546;42.674;23.284;2023-05-29T06:02:48;24.10;;;9.90;;
30818;SDS011;17546;42.674;23.284;2023-05-29T06:05:14;27.98;;;11.07;;
30818;SDS011;17546;42.674;23.284;2023-05-29T06:07:40;29.05;;;9.98;;
30818;SDS011;17546;42.674;23.284;2023-05-29T06:10:06;29.27;;;10.10;;
30818;SDS011;17546;42.674;23.284;2023-05-29T06:12:32;23.13;;;10.05;;
30818;SDS011;17546;42.674;23.284;2023-05-29T06:14:58;33.45;;;11.38;;
30818;SDS011;17546;42.674;23.284;2023-05-29T06:17:23;21.58;;;8.43;;
30818;SDS011;17546;42.674;23.284;2023-05-29T06:19:49;15.35;;;7.60;;
30818;SDS011;17546;42.674;23.284;2023-05-29T06:22:15;18.92;;;7.80;;
30818;SDS011;17546;42.674;23.284;2023-05-29T06:24:41;30.58;;;8.40;;
30818;SDS011;17546;42.674;23.284;2023-05-29T06:27:06;24.80;;;11.35;;
30818;SDS011;17546;42.674;23.284;2023-05-29T06:29:32;14.15;;;8.18;;
30818;SDS011;17546;42.674;23.284;2023-05-29T06:31:58;27.63;;;10.95;;
30818;SDS011;17546;42.674;23.284;2023-05-29T06:34:23;14.32;;;8.35;;
30818;SDS011;17546;42.674;23.284;2023-05-29T06:36:48;15.10;;;7.78;;
30818;SDS011;17546;42.674;23.284;2023-05-29T06:39:14;11.23;;;5.10;;
30818;SDS011;17546;42.674;23.284;2023-05-29T06:41:41;16.20;;;5.70;;
30818;SDS011;17546;42.674;23.284;2023-05-29T06:44:06;20.45;;;6.13;;
30818;SDS011;17546;42.674;23.284;2023-05-29T06:46:32;11.05;;;5.10;;
30818;SDS011;17546;42.674;23.284;2023-05-29T06:48:57;7.85;;;4.43;;
30818;SDS011;17546;42.674;23.284;2023-05-29T06:51:22;8.68;;;4.25;;
30818;SDS011;17546;42.674;23.284;2023-05-29T06:53:48;12.27;;;5.82;;
30818;SDS011;17546;42.674;23.284;2023-05-29T06:56:13;19.92;;;5.80;;
30818;SDS011;17546;42.674;23.284;2023-05-29T06:58:39;20.15;;;5.13;;
30818;SDS011;17546;42.674;23.284;2023-05-29T07:01:05;12.25;;;4.65;;
30818;SDS011;17546;42.674;23.284;2023-05-29T07:03:30;10.82;;;4.03;;
30818;SDS011;17546;42.674;23.284;2023-05-29T07:05:55;13.38;;;6.32;;
30818;SDS011;17546;42.674;23.284;2023-05-29T07:08:21;11.88;;;3.92;;
30818;SDS011;17546;42.674;23.284;2023-05-29T07:10:47;10.15;;;3.92;;
30818;SDS011;17546;42.674;23.284;2023-05-29T07:13:16;10.43;;;3.55;;
30818;SDS011;17546;42.674;23.284;2023-05-29T07:15:43;5.57;;;3.10;;
30818;SDS011;17546;42.674;23.284;2023-05-29T07:18:08;7.50;;;3.60;;
30818;SDS011;17546;42.674;23.284;2023-05-29T07:20:35;11.02;;;5.38;;
30818;SDS011;17546;42.674;23.284;2023-05-29T07:23:01;9.50;;;3.97;;
30818;SDS011;17546;42.674;23.284;2023-05-29T07:25:27;11.93;;;5.03;;
30818;SDS011;17546;42.674;23.284;2023-05-29T07:27:53;6.65;;;3.10;;
30818;SDS011;17546;42.674;23.284;2023-05-29T07:30:18;12.27;;;4.03;;
30818;SDS011;17546;42.674;23.284;2023-05-29T07:32:44;7.45;;;3.17;;
30818;SDS011;17546;42.674;23.284;2023-05-29T07:35:09;5.35;;;2.80;;
30818;SDS011;17546;42.674;23.284;2023-05-29T07:37:35;8.75;;;3.13;;
30818;SDS011;17546;42.674;23.284;2023-05-29T07:40:01;11.88;;;3.25;;
30818;SDS011;17546;42.674;23.284;2023-05-29T07:42:26;7.55;;;3.13;;
30818;SDS011;17546;42.674;23.284;2023-05-29T07:44:52;9.20;;;3.20;;
30818;SDS011;17546;42.674;23.284;2023-05-29T07:47:17;12.68;;;5.05;;
30818;SDS011;17546;42.674;23.284;2023-05-29T07:49:42;8.93;;;5.00;;
30818;SDS011;17546;42.674;23.284;2023-05-29T07:52:08;7.00;;;4.07;;
30818;SDS011;17546;42.674;23.284;2023-05-29T07:54:33;13.43;;;5.15;;
30818;SDS011;17546;42.674;23.284;2023-05-29T07:56:59;20.13;;;5.20;;
30818;SDS011;17546;42.674;23.284;2023-05-29T07:59:25;11.27;;;5.43;;
30818;SDS011;17546;42.674;23.284;2023-05-29T08:01:51;8.75;;;3.50;;
30818;SDS011;17546;42.674;23.284;2023-05-29T08:04:17;10.48;;;3.60;;
30818;SDS011;17546;42.674;23.284;2023-05-29T08:06:42;6.70;;;3.20;;
30818;SDS011;17546;42.674;23.284;2023-05-29T08:09:08;7.57;;;3.25;;
30818;SDS011;17546;42.674;23.284;2023-05-29T08:11:35;6.10;;;3.55;;
30818;SDS011;17546;42.674;23.284;2023-05-29T08:14:01;8.02;;;3.40;;
30818;SDS011;17546;42.674;23.284;2023-05-29T08:16:26;10.88;;;6.30;;
30818;SDS011;17546;42.674;23.284;2023-05-29T08:18:52;7.55;;;3.05;;
30818;SDS011;17546;42.674;23.284;2023-05-29T08:21:18;10.23;;;3.33;;
30818;SDS011;17546;42.674;23.284;2023-05-29T08:23:44;6.43;;;3.13;;
30818;SDS011;17546;42.674;23.284;2023-05-29T08:26:09;7.80;;;2.95;;
30818;SDS011;17546;42.674;23.284;2023-05-29T08:28:35;6.15;;;2.97;;
30818;SDS011;17546;42.674;23.284;2023-05-29T08:31:00;8.55;;;2.88;;
30818;SDS011;17546;42.674;23.284;2023-05-29T08:33:26;7.30;;;3.03;;
30818;SDS011;17546;42.674;23.284;2023-05-29T08:35:51;8.63;;;3.15;;
30818;SDS011;17546;42.674;23.284;2023-05-29T08:38:17;9.15;;;3.40;;
30818;SDS011;17546;42.674;23.284;2023-05-29T08:40:42;10.38;;;3.08;;
30818;SDS011;17546;42.674;23.284;2023-05-29T08:43:15;6.00;;;2.70;;
30818;SDS011;17546;42.674;23.284;2023-05-29T08:45:45;6.45;;;2.90;;
30818;SDS011;17546;42.674;23.284;2023-05-29T08:48:12;5.55;;;2.92;;
30818;SDS011;17546;42.674;23.284;2023-05-29T08:50:45;10.32;;;2.80;;
30818;SDS011;17546;42.674;23.284;2023-05-29T08:53:12;6.57;;;2.78;;
30818;SDS011;17546;42.674;23.284;2023-05-29T08:55:38;4.03;;;2.67;;
30818;SDS011;17546;42.674;23.284;2023-05-29T08:58:04;10.75;;;6.53;;
30818;SDS011;17546;42.674;23.284;2023-05-29T09:00:30;5.25;;;3.50;;
30818;SDS011;17546;42.674;23.284;2023-05-29T09:02:57;8.30;;;4.07;;
30818;SDS011;17546;42.674;23.284;2023-05-29T09:05:24;8.43;;;3.10;;
30818;SDS011;17546;42.674;23.284;2023-05-29T09:07:51;12.10;;;6.85;;
30818;SDS011;17546;42.674;23.284;2023-05-29T09:10:17;9.68;;;3.30;;
30818;SDS011;17546;42.674;23.284;2023-05-29T09:12:43;11.35;;;5.80;;
30818;SDS011;17546;42.674;23.284;2023-05-29T09:15:18;8.48;;;4.07;;
30818;SDS011;17546;42.674;23.284;2023-05-29T09:17:52;24.45;;;12.85;;
30818;SDS011;17546;42.674;23.284;2023-05-29T09:20:19;7.25;;;3.40;;
30818;SDS011;17546;42.674;23.284;2023-05-29T09:25:27;5.03;;;2.58;;
30818;SDS011;17546;42.674;23.284;2023-05-29T09:27:57;11.70;;;6.72;;
30818;SDS011;17546;42.674;23.284;2023-05-29T09:30:31;9.88;;;3.00;;
30818;SDS011;17546;42.674;23.284;2023-05-29T09:32:59;5.03;;;2.70;;
30818;SDS011;17546;42.674;23.284;2023-05-29T09:35:27;7.50;;;3.25;;
30818;SDS011;17546;42.674;23.284;2023-05-29T09:37:57;16.52;;;3.13;;
30818;SDS011;17546;42.674;23.284;2023-05-29T09:40:23;5.85;;;2.80;;
30818;SDS011;17546;42.674;23.284;2023-05-29T09:42:48;5.15;;;3.10;;
30818;SDS011;17546;42.674;23.284;2023-05-29T09:45:16;4.72;;;3.10;;
30818;SDS011;17546;42.674;23.284;2023-05-29T09:47:43;5.20;;;2.55;;
30818;SDS011;17546;42.674;23.284;2023-05-29T09:50:17;9.27;;;2.70;;
30818;SDS011;17546;42.674;23.284;2023-05-29T09:52:45;14.43;;;2.88;;
30818;SDS011;17546;42.674;23.284;2023-05-29T09:55:11;9.45;;;3.03;;
30818;SDS011;17546;42.674;23.284;2023-05-29T09:57:43;4.65;;;3.08;;
30818;SDS011;17546;42.674;23.284;2023-05-29T10:00:11;7.70;;;3.20;;
30818;SDS011;17546;42.674;23.284;2023-05-29T10:02:38;6.57;;;3.50;;
30818;SDS011;17546;42.674;23.284;2023-05-29T10:05:05;6.85;;;2.95;;
30818;SDS011;17546;42.674;23.284;2023-05-29T10:07:33;8.88;;;3.47;;
30818;SDS011;17546;42.674;23.284;2023-05-29T10:10:02;8.25;;;3.40;;
30818;SDS011;17546;42.674;23.284;2023-05-29T10:12:31;9.27;;;3.25;;
30818;SDS011;17546;42.674;23.284;2023-05-29T10:14:58;8.75;;;3.35;;
30818;SDS011;17546;42.674;23.284;2023-05-29T10:17:25;12.52;;;4.10;;
30818;SDS011;17546;42.674;23.284;2023-05-29T10:19:53;8.07;;;3.60;;
30818;SDS011;17546;42.674;23.284;2023-05-29T10:22:23;10.77;;;3.60;;
30818;SDS011;17546;42.674;23.284;2023-05-29T10:24:50;10.07;;;3.53;;
30818;SDS011;17546;42.674;23.284;2023-05-29T10:27:18;6.47;;;3.30;;
30818;SDS011;17546;42.674;23.284;2023-05-29T10:32:21;9.90;;;3.15;;
30818;SDS011;17546;42.674;23.284;2023-05-29T10:35:12;6.10;;;3.15;;
30818;SDS011;17546;42.674;23.284;2023-05-29T10:37:48;44.85;;;4.53;;
30818;SDS011;17546;42.674;23.284;2023-05-29T10:40:23;10.55;;;3.13;;
30818;SDS011;17546;42.674;23.284;2023-05-29T10:42:51;13.82;;;3.30;;
30818;SDS011;17546;42.674;23.284;2023-05-29T10:47:54;6.72;;;2.67;;
30818;SDS011;17546;42.674;23.284;2023-05-29T10:50:35;8.00;;;2.85;;
30818;SDS011;17546;42.674;23.284;2023-05-29T10:53:01;8.00;;;2.80;;
30818;SDS011;17546;42.674;23.284;2023-05-29T10:55:36;12.90;;;3.40;;
30818;SDS011;17546;42.674;23.284;2023-05-29T10:58:10;6.88;;;2.92;;
30818;SDS011;17546;42.674;23.284;2023-05-29T11:03:07;13.63;;;3.50;;
30818;SDS011;17546;42.674;23.284;2023-05-29T11:05:32;11.98;;;3.20;;
30818;SDS011;17546;42.674;23.284;2023-05-29T11:07:59;11.80;;;2.95;;
30818;SDS011;17546;42.674;23.284;2023-05-29T11:13:23;6.30;;;3.03;;
30818;SDS011;17546;42.674;23.284;2023-05-29T11:18:39;10.73;;;3.63;;
30818;SDS011;17546;42.674;23.284;2023-05-29T11:21:06;12.48;;;3.58;;
30818;SDS011;17546;42.674;23.284;2023-05-29T11:23:51;12.40;;;3.40;;
30818;SDS011;17546;42.674;23.284;2023-05-29T11:26:21;7.90;;;3.55;;
30818;SDS011;17546;42.674;23.284;2023-05-29T11:28:48;8.15;;;3.50;;
30818;SDS011;17546;42.674;23.284;2023-05-29T11:31:14;7.28;;;3.45;;
30818;SDS011;17546;42.674;23.284;2023-05-29T11:33:41;16.58;;;3.60;;
30818;SDS011;17546;42.674;23.284;2023-05-29T11:36:12;5.78;;;3.10;;
30818;SDS011;17546;42.674;23.284;2023-05-29T11:38:39;21.95;;;4.57;;
30818;SDS011;17546;42.674;23.284;2023-05-29T11:41:05;10.02;;;4.13;;
30818;SDS011;17546;42.674;23.284;2023-05-29T11:43:30;6.05;;;3.22;;
30818;SDS011;17546;42.674;23.284;2023-05-29T11:45:56;13.00;;;3.92;;
30818;SDS011;17546;42.674;23.284;2023-05-29T11:48:22;11.15;;;4.00;;
30818;SDS011;17546;42.674;23.284;2023-05-29T11:50:48;8.52;;;3.35;;
30818;SDS011;17546;42.674;23.284;2023-05-29T11:53:14;12.35;;;3.42;;
30818;SDS011;17546;42.674;23.284;2023-05-29T11:55:39;7.53;;;3.30;;
30818;SDS011;17546;42.674;23.284;2023-05-29T11:58:05;23.38;;;4.45;;
30818;SDS011;17546;42.674;23.284;2023-05-29T12:00:32;6.60;;;3.20;;
30818;SDS011;17546;42.674;23.284;2023-05-29T12:03:00;6.65;;;3.10;;
30818;SDS011;17546;42.674;23.284;2023-05-29T12:05:29;6.80;;;3.22;;
30818;SDS011;17546;42.674;23.284;2023-05-29T12:07:56;10.15;;;3.03;;
30818;SDS011;17546;42.674;23.284;2023-05-29T12:10:22;4.07;;;2.95;;
30818;SDS011;17546;42.674;23.284;2023-05-29T12:12:52;13.65;;;3.42;;
30818;SDS011;17546;42.674;23.284;2023-05-29T12:15:19;12.52;;;4.15;;
30818;SDS011;17546;42.674;23.284;2023-05-29T12:17:46;12.50;;;4.10;;
30818;SDS011;17546;42.674;23.284;2023-05-29T12:20:13;13.25;;;4.10;;
30818;SDS011;17546;42.674;23.284;2023-05-29T12:22:40;8.15;;;3.55;;
30818;SDS011;17546;42.674;23.284;2023-05-29T12:25:07;9.15;;;3.72;;
30818;SDS011;17546;42.674;23.284;2023-05-29T12:27:43;14.95;;;5.07;;
30818;SDS011;17546;42.674;23.284;2023-05-29T12:30:14;24.17;;;5.07;;
30818;SDS011;17546;42.674;23.284;2023-05-29T12:32:46;14.63;;;4.03;;
30818;SDS011;17546;42.674;23.284;2023-05-29T12:35:19;25.27;;;4.82;;
30818;SDS011;17546;42.674;23.284;2023-05-29T12:37:49;8.45;;;3.83;;
30818;SDS011;17546;42.674;23.284;2023-05-29T12:40:21;11.45;;;4.78;;
30818;SDS011;17546;42.674;23.284;2023-05-29T12:42:56;16.25;;;5.20;;
30818;SDS011;17546;42.674;23.284;2023-05-29T12:45:27;18.23;;;6.72;;
30818;SDS011;17546;42.674;23.284;2023-05-29T12:47:57;32.60;;;7.57;;
30818;SDS011;17546;42.674;23.284;2023-05-29T12:50:29;18.45;;;6.43;;
30818;SDS011;17546;42.674;23.284;2023-05-29T12:52:57;21.98;;;6.68;;
30818;SDS011;17546;42.674;23.284;2023-05-29T12:55:28;18.75;;;5.90;;
30818;SDS011;17546;42.674;23.284;2023-05-29T12:57:55;13.63;;;5.65;;
30818;SDS011;17546;42.674;23.284;2023-05-29T13:00:21;16.67;;;8.05;;
30818;SDS011;17546;42.674;23.284;2023-05-29T13:02:48;24.42;;;9.23;;
30818;SDS011;17546;42.674;23.284;2023-05-29T13:05:14;17.42;;;7.82;;
30818;SDS011;17546;42.674;23.284;2023-05-29T13:07:41;21.05;;;7.53;;
30818;SDS011;17546;42.674;23.284;2023-05-29T13:10:07;13.50;;;6.68;;
30818;SDS011;17546;42.674;23.284;2023-05-29T13:12:33;13.40;;;6.70;;
30818;SDS011;17546;42.674;23.284;2023-05-29T13:15:00;14.35;;;5.43;;
30818;SDS011;17546;42.674;23.284;2023-05-29T13:17:25;18.10;;;5.72;;
30818;SDS011;17546;42.674;23.284;2023-05-29T13:19:50;9.82;;;4.90;;
30818;SDS011;17546;42.674;23.284;2023-05-29T13:22:16;10.15;;;4.35;;
30818;SDS011;17546;42.674;23.284;2023-05-29T13:24:41;12.30;;;4.53;;
30818;SDS011;17546;42.674;23.284;2023-05-29T13:27:07;6.72;;;4.00;;
30818;SDS011;17546;42.674;23.284;2023-05-29T13:29:32;10.55;;;5.20;;
30818;SDS011;17546;42.674;23.284;2023-05-29T13:31:58;6.80;;;4.45;;
30818;SDS011;17546;42.674;23.284;2023-05-29T13:34:24;7.18;;;4.85;;
30818;SDS011;17546;42.674;23.284;2023-05-29T13:36:53;9.05;;;5.10;;
30818;SDS011;17546;42.674;23.284;2023-05-29T13:39:22;8.68;;;4.70;;
30818;SDS011;17546;42.674;23.284;2023-05-29T13:41:47;7.60;;;4.35;;
30818;SDS011;17546;42.674;23.284;2023-05-29T13:44:13;12.30;;;5.43;;
30818;SDS011;17546;42.674;23.284;2023-05-29T13:46:39;7.10;;;3.40;;
30818;SDS011;17546;42.674;23.284;2023-05-29T13:49:04;5.45;;;3.08;;
30818;SDS011;17546;42.674;23.284;2023-05-29T13:51:30;8.63;;;2.97;;
30818;SDS011;17546;42.674;23.284;2023-05-29T13:53:55;9.13;;;4.22;;
30818;SDS011;17546;42.674;23.284;2023-05-29T13:56:20;7.85;;;4.47;;
30818;SDS011;17546;42.674;23.284;2023-05-29T13:58:46;11.10;;;4.78;;
30818;SDS011;17546;42.674;23.284;2023-05-29T14:01:11;10.38;;;4.78;;
30818;SDS011;17546;42.674;23.284;2023-05-29T14:03:38;10.45;;;4.93;;
30818;SDS011;17546;42.674;23.284;2023-05-29T14:06:03;8.27;;;5.03;;
30818;SDS011;17546;42.674;23.284;2023-05-29T14:08:30;10.65;;;5.18;;
30818;SDS011;17546;42.674;23.284;2023-05-29T14:10:56;8.07;;;4.28;;
30818;SDS011;17546;42.674;23.284;2023-05-29T14:13:21;18.35;;;4.55;;
30818;SDS011;17546;42.674;23.284;2023-05-29T14:15:47;5.05;;;2.92;;
30818;SDS011;17546;42.674;23.284;2023-05-29T14:18:14;4.43;;;2.13;;
30818;SDS011;17546;42.674;23.284;2023-05-29T14:20:39;2.50;;;1.80;;
30818;SDS011;17546;42.674;23.284;2023-05-29T14:23:05;3.30;;;2.08;;
30818;SDS011;17546;42.674;23.284;2023-05-29T14:25:30;3.90;;;1.95;;
30818;SDS011;17546;42.674;23.284;2023-05-29T14:27:56;3.38;;;1.73;;
30818;SDS011;17546;42.674;23.284;2023-05-29T14:30:21;4.32;;;1.77;;
30818;SDS011;17546;42.674;23.284;2023-05-29T14:32:46;3.97;;;2.00;;
30818;SDS011;17546;42.674;23.284;2023-05-29T14:35:13;8.25;;;1.98;;
30818;SDS011;17546;42.674;23.284;2023-05-29T14:37:38;6.55;;;2.40;;
30818;SDS011;17546;42.674;23.284;2023-05-29T14:40:04;6.35;;;2.47;;
30818;SDS011;17546;42.674;23.284;2023-05-29T14:42:30;5.05;;;2.17;;
30818;SDS011;17546;42.674;23.284;2023-05-29T14:44:57;7.95;;;2.60;;
30818;SDS011;17546;42.674;23.284;2023-05-29T14:47:23;4.57;;;2.22;;